sensor_id;sensor_type;location;lat;lon;timestamp;P1;durP1;ratioP1;P2;durP2;ratioP2
15022;SDS011;19850;49.576;10.880;2023-04-03T00:02:48;1.80;;;1.40;;
15022;SDS011;19850;49.576;10.880;2023-04-03T00:06:51;2.53;;;1.20;;
15022;SDS011;19850;49.576;10.880;2023-04-03T00:10:53;1.30;;;1.20;;
15022;SDS011;19850;49.576;10.880;2023-04-03T00:14:56;1.53;;;1.10;;
15022;SDS011;19850;49.576;10.880;2023-04-03T00:19:00;1.33;;;1.20;;
15022;SDS011;19850;49.576;10.880;2023-04-03T00:23:03;1.20;;;1.10;;
15022;SDS011;19850;49.576;10.880;2023-04-03T00:27:06;1.37;;;1.10;;
15022;SDS011;19850;49.576;10.880;2023-04-03T00:31:09;1.33;;;1.10;;
15022;SDS011;19850;49.576;10.880;2023-04-03T00:35:13;1.77;;;1.20;;
15022;SDS011;19850;49.576;10.880;2023-04-03T00:39:17;2.23;;;1.40;;
15022;SDS011;19850;49.576;10.880;2023-04-03T00:43:20;1.13;;;1.13;;
15022;SDS011;19850;49.576;10.880;2023-04-03T00:47:24;1.30;;;1.30;;
15022;SDS011;19850;49.576;10.880;2023-04-03T00:51:28;2.03;;;1.50;;
15022;SDS011;19850;49.576;10.880;2023-04-03T00:55:31;2.00;;;1.30;;
15022;SDS011;19850;49.576;10.880;2023-04-03T00:59:35;1.10;;;1.10;;
15022;SDS011;19850;49.576;10.880;2023-04-03T01:03:42;1.97;;;1.13;;
15022;SDS011;19850;49.576;10.880;2023-04-03T01:07:46;1.50;;;1.10;;
15022;SDS011;19850;49.576;10.880;2023-04-03T01:11:50;1.20;;;1.10;;
15022;SDS011;19850;49.576;10.880;2023-04-03T01:15:52;1.23;;;1.17;;
15022;SDS011;19850;49.576;10.880;2023-04-03T01:20:01;1.00;;;0.97;;
15022;SDS011;19850;49.576;10.880;2023-04-03T01:24:29;1.50;;;1.40;;
15022;SDS011;19850;49.576;10.880;2023-04-03T01:28:35;1.50;;;1.07;;
15022;SDS011;19850;49.576;10.880;2023-04-03T01:32:39;2.00;;;1.40;;
15022;SDS011;19850;49.576;10.880;2023-04-03T01:36:42;2.07;;;1.13;;
15022;SDS011;19850;49.576;10.880;2023-04-03T01:40:45;1.47;;;1.10;;
15022;SDS011;19850;49.576;10.880;2023-04-03T01:44:48;1.23;;;1.10;;
15022;SDS011;19850;49.576;10.880;2023-04-03T01:48:52;1.40;;;1.30;;
15022;SDS011;19850;49.576;10.880;2023-04-03T01:52:55;1.27;;;1.13;;
15022;SDS011;19850;49.576;10.880;2023-04-03T01:56:57;1.47;;;1.30;;
15022;SDS011;19850;49.576;10.880;2023-04-03T02:01:00;1.70;;;1.30;;
15022;SDS011;19850;49.576;10.880;2023-04-03T02:05:05;2.10;;;1.03;;
15022;SDS011;19850;49.576;10.880;2023-04-03T02:09:09;1.73;;;1.10;;
15022;SDS011;19850;49.576;10.880;2023-04-03T02:13:11;1.30;;;1.20;;
15022;SDS011;19850;49.576;10.880;2023-04-03T02:17:14;3.17;;;1.10;;
15022;SDS011;19850;49.576;10.880;2023-04-03T02:21:18;1.50;;;1.30;;
15022;SDS011;19850;49.576;10.880;2023-04-03T02:25:21;3.17;;;1.20;;
15022;SDS011;19850;49.576;10.880;2023-04-03T02:29:24;1.87;;;1.30;;
15022;SDS011;19850;49.576;10.880;2023-04-03T02:33:27;1.47;;;1.20;;
15022;SDS011;19850;49.576;10.880;2023-04-03T02:37:31;1.23;;;1.13;;
15022;SDS011;19850;49.576;10.880;2023-04-03T02:41:35;2.83;;;1.40;;
15022;SDS011;19850;49.576;10.880;2023-04-03T02:45:37;1.83;;;1.50;;
15022;SDS011;19850;49.576;10.880;2023-04-03T02:49:40;2.07;;;1.47;;
15022;SDS011;19850;49.576;10.880;2023-04-03T02:53:46;3.60;;;1.80;;
15022;SDS011;19850;49.576;10.880;2023-04-03T02:57:48;4.17;;;1.73;;
15022;SDS011;19850;49.576;10.880;2023-04-03T03:01:53;2.33;;;1.43;;
15022;SDS011;19850;49.576;10.880;2023-04-03T03:06:03;3.83;;;1.67;;
15022;SDS011;19850;49.576;10.880;2023-04-03T03:10:08;3.27;;;1.70;;
15022;SDS011;19850;49.576;10.880;2023-04-03T03:14:11;3.33;;;1.50;;
15022;SDS011;19850;49.576;10.880;2023-04-03T03:18:14;4.40;;;1.50;;
15022;SDS011;19850;49.576;10.880;2023-04-03T03:22:16;2.03;;;1.73;;
15022;SDS011;19850;49.576;10.880;2023-04-03T03:26:21;3.73;;;1.60;;
15022;SDS011;19850;49.576;10.880;2023-04-03T03:30:23;2.90;;;1.73;;
15022;SDS011;19850;49.576;10.880;2023-04-03T03:34:27;4.60;;;1.90;;
15022;SDS011;19850;49.576;10.880;2023-04-03T03:38:30;3.57;;;1.90;;
15022;SDS011;19850;49.576;10.880;2023-04-03T03:42:34;3.20;;;1.90;;
15022;SDS011;19850;49.576;10.880;2023-04-03T03:46:36;3.73;;;2.03;;
15022;SDS011;19850;49.576;10.880;2023-04-03T03:50:39;3.10;;;1.70;;
15022;SDS011;19850;49.576;10.880;2023-04-03T03:54:42;2.03;;;1.73;;
15022;SDS011;19850;49.576;10.880;2023-04-03T03:58:46;2.00;;;1.70;;
15022;SDS011;19850;49.576;10.880;2023-04-03T04:02:48;2.50;;;1.70;;
15022;SDS011;19850;49.576;10.880;2023-04-03T04:06:51;3.37;;;1.60;;
15022;SDS011;19850;49.576;10.880;2023-04-03T04:10:54;4.33;;;1.90;;
15022;SDS011;19850;49.576;10.880;2023-04-03T04:14:58;3.47;;;1.70;;
15022;SDS011;19850;49.576;10.880;2023-04-03T04:19:01;4.03;;;2.00;;
15022;SDS011;19850;49.576;10.880;2023-04-03T04:23:07;2.93;;;1.80;;
15022;SDS011;19850;49.576;10.880;2023-04-03T04:27:10;3.87;;;1.93;;
15022;SDS011;19850;49.576;10.880;2023-04-03T04:31:14;3.57;;;2.20;;
15022;SDS011;19850;49.576;10.880;2023-04-03T04:35:17;1.87;;;1.70;;
15022;SDS011;19850;49.576;10.880;2023-04-03T04:39:20;4.20;;;2.40;;
15022;SDS011;19850;49.576;10.880;2023-04-03T04:43:22;4.23;;;2.20;;
15022;SDS011;19850;49.576;10.880;2023-04-03T04:47:27;4.60;;;2.20;;
15022;SDS011;19850;49.576;10.880;2023-04-03T04:51:30;4.53;;;2.90;;
15022;SDS011;19850;49.576;10.880;2023-04-03T04:55:48;3.27;;;1.87;;
15022;SDS011;19850;49.576;10.880;2023-04-03T04:59:51;1.90;;;1.70;;
15022;SDS011;19850;49.576;10.880;2023-04-03T05:03:55;3.57;;;1.60;;
15022;SDS011;19850;49.576;10.880;2023-04-03T05:07:58;2.57;;;1.70;;
15022;SDS011;19850;49.576;10.880;2023-04-03T05:12:01;3.10;;;1.67;;
15022;SDS011;19850;49.576;10.880;2023-04-03T05:16:04;2.67;;;1.63;;
15022;SDS011;19850;49.576;10.880;2023-04-03T05:20:10;3.13;;;1.83;;
15022;SDS011;19850;49.576;10.880;2023-04-03T05:24:13;3.70;;;1.77;;
15022;SDS011;19850;49.576;10.880;2023-04-03T05:28:18;4.70;;;1.67;;
15022;SDS011;19850;49.576;10.880;2023-04-03T05:32:21;3.27;;;1.70;;
15022;SDS011;19850;49.576;10.880;2023-04-03T05:36:25;3.03;;;1.70;;
15022;SDS011;19850;49.576;10.880;2023-04-03T05:40:28;3.87;;;1.70;;
15022;SDS011;19850;49.576;10.880;2023-04-03T05:44:30;3.00;;;1.90;;
15022;SDS011;19850;49.576;10.880;2023-04-03T05:48:34;3.13;;;1.73;;
15022;SDS011;19850;49.576;10.880;2023-04-03T05:52:38;5.00;;;1.67;;
15022;SDS011;19850;49.576;10.880;2023-04-03T05:56:43;4.83;;;1.80;;
15022;SDS011;19850;49.576;10.880;2023-04-03T06:00:46;3.00;;;1.67;;
15022;SDS011;19850;49.576;10.880;2023-04-03T06:04:49;4.87;;;1.70;;
15022;SDS011;19850;49.576;10.880;2023-04-03T06:08:54;4.33;;;1.80;;
15022;SDS011;19850;49.576;10.880;2023-04-03T06:12:57;4.20;;;1.90;;
15022;SDS011;19850;49.576;10.880;2023-04-03T06:17:00;4.93;;;1.83;;
15022;SDS011;19850;49.576;10.880;2023-04-03T06:21:04;2.57;;;1.70;;
15022;SDS011;19850;49.576;10.880;2023-04-03T06:25:10;3.77;;;1.73;;
15022;SDS011;19850;49.576;10.880;2023-04-03T06:29:13;2.63;;;1.50;;
15022;SDS011;19850;49.576;10.880;2023-04-03T06:33:16;4.30;;;1.80;;
15022;SDS011;19850;49.576;10.880;2023-04-03T06:37:20;4.10;;;1.80;;
15022;SDS011;19850;49.576;10.880;2023-04-03T06:41:25;2.90;;;1.63;;
15022;SDS011;19850;49.576;10.880;2023-04-03T06:45:27;5.23;;;2.00;;
15022;SDS011;19850;49.576;10.880;2023-04-03T06:49:31;4.43;;;2.23;;
15022;SDS011;19850;49.576;10.880;2023-04-03T06:53:34;6.17;;;3.00;;
15022;SDS011;19850;49.576;10.880;2023-04-03T06:57:38;3.90;;;2.20;;
15022;SDS011;19850;49.576;10.880;2023-04-03T07:01:40;4.80;;;2.50;;
15022;SDS011;19850;49.576;10.880;2023-04-03T07:05:43;3.43;;;1.90;;
15022;SDS011;19850;49.576;10.880;2023-04-03T07:09:47;3.60;;;2.00;;
15022;SDS011;19850;49.576;10.880;2023-04-03T07:13:51;3.10;;;2.50;;
15022;SDS011;19850;49.576;10.880;2023-04-03T07:17:54;6.23;;;3.10;;
15022;SDS011;19850;49.576;10.880;2023-04-03T07:21:58;5.67;;;3.53;;
15022;SDS011;19850;49.576;10.880;2023-04-03T07:26:01;3.40;;;1.90;;
15022;SDS011;19850;49.576;10.880;2023-04-03T07:30:05;4.37;;;2.90;;
15022;SDS011;19850;49.576;10.880;2023-04-03T07:34:10;5.03;;;3.40;;
15022;SDS011;19850;49.576;10.880;2023-04-03T07:38:13;3.87;;;2.37;;
15022;SDS011;19850;49.576;10.880;2023-04-03T07:42:16;3.97;;;2.43;;
15022;SDS011;19850;49.576;10.880;2023-04-03T07:46:20;3.87;;;2.60;;
15022;SDS011;19850;49.576;10.880;2023-04-03T07:50:23;15.83;;;10.97;;
15022;SDS011;19850;49.576;10.880;2023-04-03T07:54:26;15.17;;;11.13;;
15022;SDS011;19850;49.576;10.880;2023-04-03T07:58:29;7.90;;;4.73;;
15022;SDS011;19850;49.576;10.880;2023-04-03T08:02:34;7.00;;;4.00;;
15022;SDS011;19850;49.576;10.880;2023-04-03T08:06:37;9.17;;;4.17;;
15022;SDS011;19850;49.576;10.880;2023-04-03T08:10:48;22.90;;;11.60;;
15022;SDS011;19850;49.576;10.880;2023-04-03T08:14:52;8.13;;;4.07;;
15022;SDS011;19850;49.576;10.880;2023-04-03T08:18:56;5.23;;;3.70;;
15022;SDS011;19850;49.576;10.880;2023-04-03T08:22:59;5.93;;;3.80;;
15022;SDS011;19850;49.576;10.880;2023-04-03T08:27:01;5.33;;;2.97;;
15022;SDS011;19850;49.576;10.880;2023-04-03T08:31:04;4.17;;;2.10;;
15022;SDS011;19850;49.576;10.880;2023-04-03T08:35:10;3.37;;;1.80;;
15022;SDS011;19850;49.576;10.880;2023-04-03T08:39:13;2.27;;;1.70;;
15022;SDS011;19850;49.576;10.880;2023-04-03T08:43:22;2.57;;;1.80;;
15022;SDS011;19850;49.576;10.880;2023-04-03T08:47:37;3.23;;;1.80;;
15022;SDS011;19850;49.576;10.880;2023-04-03T08:51:42;4.07;;;1.90;;
15022;SDS011;19850;49.576;10.880;2023-04-03T08:55:49;3.00;;;1.60;;
15022;SDS011;19850;49.576;10.880;2023-04-03T08:59:52;2.80;;;2.10;;
15022;SDS011;19850;49.576;10.880;2023-04-03T09:03:55;2.77;;;1.67;;
15022;SDS011;19850;49.576;10.880;2023-04-03T09:07:59;2.93;;;1.40;;
15022;SDS011;19850;49.576;10.880;2023-04-03T09:12:04;3.27;;;1.90;;
15022;SDS011;19850;49.576;10.880;2023-04-03T09:16:15;2.40;;;1.60;;
15022;SDS011;19850;49.576;10.880;2023-04-03T09:20:24;3.57;;;1.57;;
15022;SDS011;19850;49.576;10.880;2023-04-03T09:24:34;2.10;;;1.67;;
15022;SDS011;19850;49.576;10.880;2023-04-03T09:28:38;2.03;;;1.30;;
15022;SDS011;19850;49.576;10.880;2023-04-03T09:32:50;2.33;;;1.67;;
15022;SDS011;19850;49.576;10.880;2023-04-03T09:36:55;1.80;;;1.30;;
15022;SDS011;19850;49.576;10.880;2023-04-03T09:41:04;2.20;;;1.40;;
15022;SDS011;19850;49.576;10.880;2023-04-03T09:45:18;2.40;;;1.80;;
15022;SDS011;19850;49.576;10.880;2023-04-03T09:49:24;2.07;;;1.40;;
15022;SDS011;19850;49.576;10.880;2023-04-03T09:53:34;2.30;;;1.70;;
15022;SDS011;19850;49.576;10.880;2023-04-03T09:57:40;2.50;;;1.57;;
15022;SDS011;19850;49.576;10.880;2023-04-03T10:01:43;2.60;;;1.50;;
15022;SDS011;19850;49.576;10.880;2023-04-03T10:06:00;2.90;;;1.87;;
15022;SDS011;19850;49.576;10.880;2023-04-03T10:10:15;2.63;;;1.70;;
15022;SDS011;19850;49.576;10.880;2023-04-03T10:14:22;3.30;;;1.80;;
15022;SDS011;19850;49.576;10.880;2023-04-03T10:18:28;2.93;;;1.70;;
15022;SDS011;19850;49.576;10.880;2023-04-03T10:22:37;3.17;;;1.50;;
15022;SDS011;19850;49.576;10.880;2023-04-03T10:26:49;2.40;;;1.57;;
15022;SDS011;19850;49.576;10.880;2023-04-03T10:30:59;2.53;;;1.80;;
15022;SDS011;19850;49.576;10.880;2023-04-03T10:35:08;2.10;;;1.60;;
15022;SDS011;19850;49.576;10.880;2023-04-03T10:39:19;2.10;;;1.50;;
15022;SDS011;19850;49.576;10.880;2023-04-03T10:43:29;1.70;;;1.60;;
15022;SDS011;19850;49.576;10.880;2023-04-03T10:47:39;2.47;;;1.67;;
15022;SDS011;19850;49.576;10.880;2023-04-03T10:51:47;3.07;;;1.83;;
15022;SDS011;19850;49.576;10.880;2023-04-03T10:55:52;3.77;;;1.10;;
15022;SDS011;19850;49.576;10.880;2023-04-03T10:59:57;2.07;;;1.43;;
15022;SDS011;19850;49.576;10.880;2023-04-03T11:04:04;1.50;;;1.40;;
15022;SDS011;19850;49.576;10.880;2023-04-03T11:08:10;1.83;;;1.50;;
15022;SDS011;19850;49.576;10.880;2023-04-03T11:12:17;1.57;;;1.43;;
15022;SDS011;19850;49.576;10.880;2023-04-03T11:16:23;2.27;;;1.50;;
15022;SDS011;19850;49.576;10.880;2023-04-03T11:20:30;2.57;;;1.80;;
15022;SDS011;19850;49.576;10.880;2023-04-03T11:24:36;2.50;;;1.70;;
15022;SDS011;19850;49.576;10.880;2023-04-03T11:28:39;2.90;;;1.70;;
15022;SDS011;19850;49.576;10.880;2023-04-03T11:32:55;2.10;;;1.77;;
15022;SDS011;19850;49.576;10.880;2023-04-03T11:37:10;1.90;;;1.50;;
15022;SDS011;19850;49.576;10.880;2023-04-03T11:41:16;1.90;;;1.60;;
15022;SDS011;19850;49.576;10.880;2023-04-03T11:45:31;2.93;;;1.90;;
15022;SDS011;19850;49.576;10.880;2023-04-03T11:49:55;2.57;;;1.80;;
15022;SDS011;19850;49.576;10.880;2023-04-03T11:58:51;1.87;;;1.50;;
15022;SDS011;19850;49.576;10.880;2023-04-03T12:08:15;2.10;;;1.50;;
15022;SDS011;19850;49.576;10.880;2023-04-03T12:12:24;1.40;;;1.30;;
15022;SDS011;19850;49.576;10.880;2023-04-03T12:16:41;1.27;;;1.17;;
15022;SDS011;19850;49.576;10.880;2023-04-03T12:20:52;2.23;;;1.40;;
15022;SDS011;19850;49.576;10.880;2023-04-03T12:24:56;2.30;;;1.30;;
15022;SDS011;19850;49.576;10.880;2023-04-03T12:29:01;2.93;;;1.37;;
15022;SDS011;19850;49.576;10.880;2023-04-03T12:33:19;1.90;;;1.50;;
15022;SDS011;19850;49.576;10.880;2023-04-03T12:37:38;1.40;;;1.30;;
15022;SDS011;19850;49.576;10.880;2023-04-03T12:41:46;2.60;;;1.40;;
15022;SDS011;19850;49.576;10.880;2023-04-03T12:45:56;2.20;;;1.37;;
15022;SDS011;19850;49.576;10.880;2023-04-03T12:50:04;3.10;;;1.57;;
15022;SDS011;19850;49.576;10.880;2023-04-03T12:54:16;2.83;;;1.70;;
15022;SDS011;19850;49.576;10.880;2023-04-03T12:58:22;1.93;;;1.43;;
15022;SDS011;19850;49.576;10.880;2023-04-03T13:02:26;2.27;;;1.30;;
15022;SDS011;19850;49.576;10.880;2023-04-03T13:06:32;2.00;;;1.40;;
15022;SDS011;19850;49.576;10.880;2023-04-03T13:10:43;2.50;;;1.90;;
15022;SDS011;19850;49.576;10.880;2023-04-03T13:14:53;1.50;;;1.40;;
15022;SDS011;19850;49.576;10.880;2023-04-03T13:18:57;2.80;;;1.43;;
15022;SDS011;19850;49.576;10.880;2023-04-03T13:23:03;2.67;;;1.23;;
15022;SDS011;19850;49.576;10.880;2023-04-03T13:27:10;2.37;;;1.30;;
15022;SDS011;19850;49.576;10.880;2023-04-03T13:31:18;1.77;;;1.40;;
15022;SDS011;19850;49.576;10.880;2023-04-03T13:35:35;2.47;;;1.67;;
15022;SDS011;19850;49.576;10.880;2023-04-03T13:39:41;1.47;;;1.30;;
15022;SDS011;19850;49.576;10.880;2023-04-03T13:43:43;2.20;;;1.40;;
15022;SDS011;19850;49.576;10.880;2023-04-03T13:47:47;2.73;;;1.40;;
15022;SDS011;19850;49.576;10.880;2023-04-03T13:51:51;1.63;;;1.40;;
15022;SDS011;19850;49.576;10.880;2023-04-03T13:56:13;3.43;;;1.10;;
15022;SDS011;19850;49.576;10.880;2023-04-03T14:00:26;2.00;;;1.53;;
15022;SDS011;19850;49.576;10.880;2023-04-03T14:04:33;1.60;;;1.33;;
15022;SDS011;19850;49.576;10.880;2023-04-03T14:08:48;1.60;;;1.30;;
15022;SDS011;19850;49.576;10.880;2023-04-03T14:12:53;2.67;;;1.50;;
15022;SDS011;19850;49.576;10.880;2023-04-03T14:16:58;1.97;;;1.30;;
15022;SDS011;19850;49.576;10.880;2023-04-03T14:21:02;1.53;;;1.27;;
15022;SDS011;19850;49.576;10.880;2023-04-03T14:25:05;2.93;;;1.60;;
15022;SDS011;19850;49.576;10.880;2023-04-03T14:29:11;2.53;;;1.50;;
15022;SDS011;19850;49.576;10.880;2023-04-03T14:33:16;1.57;;;1.37;;
15022;SDS011;19850;49.576;10.880;2023-04-03T14:37:20;1.30;;;1.20;;
15022;SDS011;19850;49.576;10.880;2023-04-03T14:41:25;2.67;;;1.63;;
15022;SDS011;19850;49.576;10.880;2023-04-03T14:45:30;2.67;;;1.47;;
15022;SDS011;19850;49.576;10.880;2023-04-03T14:49:32;1.43;;;1.33;;
15022;SDS011;19850;49.576;10.880;2023-04-03T14:53:35;1.67;;;1.40;;
15022;SDS011;19850;49.576;10.880;2023-04-03T14:57:39;2.47;;;1.33;;
15022;SDS011;19850;49.576;10.880;2023-04-03T15:01:44;1.73;;;1.30;;
15022;SDS011;19850;49.576;10.880;2023-04-03T15:05:47;1.50;;;1.40;;
15022;SDS011;19850;49.576;10.880;2023-04-03T15:09:51;1.97;;;1.30;;
15022;SDS011;19850;49.576;10.880;2023-04-03T15:13:54;2.17;;;1.20;;
15022;SDS011;19850;49.576;10.880;2023-04-03T15:17:58;2.20;;;1.40;;
15022;SDS011;19850;49.576;10.880;2023-04-03T15:22:01;1.83;;;1.30;;
15022;SDS011;19850;49.576;10.880;2023-04-03T15:26:04;2.03;;;1.20;;
15022;SDS011;19850;49.576;10.880;2023-04-03T15:30:08;3.10;;;1.43;;
15022;SDS011;19850;49.576;10.880;2023-04-03T15:34:15;2.70;;;1.60;;
15022;SDS011;19850;49.576;10.880;2023-04-03T15:38:18;2.77;;;1.33;;
15022;SDS011;19850;49.576;10.880;2023-04-03T15:42:21;2.33;;;1.47;;
15022;SDS011;19850;49.576;10.880;2023-04-03T15:46:24;2.00;;;1.33;;
15022;SDS011;19850;49.576;10.880;2023-04-03T15:50:28;2.23;;;1.50;;
15022;SDS011;19850;49.576;10.880;2023-04-03T15:54:31;5.07;;;1.50;;
15022;SDS011;19850;49.576;10.880;2023-04-03T15:58:34;1.70;;;1.23;;
15022;SDS011;19850;49.576;10.880;2023-04-03T16:02:36;2.43;;;1.20;;
15022;SDS011;19850;49.576;10.880;2023-04-03T16:06:41;1.63;;;0.90;;
15022;SDS011;19850;49.576;10.880;2023-04-03T16:10:44;1.83;;;1.40;;
15022;SDS011;19850;49.576;10.880;2023-04-03T16:14:48;1.60;;;1.30;;
15022;SDS011;19850;49.576;10.880;2023-04-03T16:18:53;2.63;;;1.50;;
15022;SDS011;19850;49.576;10.880;2023-04-03T16:22:57;2.67;;;1.20;;
15022;SDS011;19850;49.576;10.880;2023-04-03T16:27:01;3.33;;;1.50;;
15022;SDS011;19850;49.576;10.880;2023-04-03T16:31:04;1.97;;;1.30;;
15022;SDS011;19850;49.576;10.880;2023-04-03T16:35:07;2.00;;;1.30;;
15022;SDS011;19850;49.576;10.880;2023-04-03T16:39:15;2.77;;;1.20;;
15022;SDS011;19850;49.576;10.880;2023-04-03T16:43:18;2.87;;;1.37;;
15022;SDS011;19850;49.576;10.880;2023-04-03T16:47:21;1.67;;;1.30;;
15022;SDS011;19850;49.576;10.880;2023-04-03T16:51:24;2.33;;;1.30;;
15022;SDS011;19850;49.576;10.880;2023-04-03T16:55:29;2.30;;;1.23;;
15022;SDS011;19850;49.576;10.880;2023-04-03T16:59:33;1.57;;;1.40;;
15022;SDS011;19850;49.576;10.880;2023-04-03T17:03:37;2.60;;;1.60;;
15022;SDS011;19850;49.576;10.880;2023-04-03T17:07:40;2.70;;;1.60;;
15022;SDS011;19850;49.576;10.880;2023-04-03T17:11:47;1.67;;;1.40;;
15022;SDS011;19850;49.576;10.880;2023-04-03T17:15:50;1.70;;;1.00;;
15022;SDS011;19850;49.576;10.880;2023-04-03T17:19:53;2.47;;;1.20;;
15022;SDS011;19850;49.576;10.880;2023-04-03T17:23:59;1.87;;;1.20;;
15022;SDS011;19850;49.576;10.880;2023-04-03T17:28:04;1.90;;;1.10;;
15022;SDS011;19850;49.576;10.880;2023-04-03T17:32:07;3.80;;;1.40;;
15022;SDS011;19850;49.576;10.880;2023-04-03T17:36:10;1.03;;;0.90;;
15022;SDS011;19850;49.576;10.880;2023-04-03T17:40:14;1.90;;;1.57;;
15022;SDS011;19850;49.576;10.880;2023-04-03T17:44:20;1.60;;;1.10;;
15022;SDS011;19850;49.576;10.880;2023-04-03T17:48:23;3.00;;;1.47;;
15022;SDS011;19850;49.576;10.880;2023-04-03T17:52:26;1.87;;;1.37;;
15022;SDS011;19850;49.576;10.880;2023-04-03T17:56:31;3.40;;;2.10;;
15022;SDS011;19850;49.576;10.880;2023-04-03T18:00:35;4.87;;;4.13;;
15022;SDS011;19850;49.576;10.880;2023-04-03T18:04:38;1.80;;;1.70;;
15022;SDS011;19850;49.576;10.880;2023-04-03T18:08:43;1.73;;;1.33;;
15022;SDS011;19850;49.576;10.880;2023-04-03T18:12:50;1.83;;;1.40;;
15022;SDS011;19850;49.576;10.880;2023-04-03T18:16:54;2.30;;;1.40;;
15022;SDS011;19850;49.576;10.880;2023-04-03T18:20:59;2.00;;;1.17;;
15022;SDS011;19850;49.576;10.880;2023-04-03T18:25:02;3.07;;;1.97;;
15022;SDS011;19850;49.576;10.880;2023-04-03T18:29:06;3.43;;;2.07;;
15022;SDS011;19850;49.576;10.880;2023-04-03T18:33:14;1.70;;;1.40;;
15022;SDS011;19850;49.576;10.880;2023-04-03T18:37:17;4.97;;;2.17;;
15022;SDS011;19850;49.576;10.880;2023-04-03T18:41:21;1.67;;;1.20;;
15022;SDS011;19850;49.576;10.880;2023-04-03T18:45:30;3.20;;;1.33;;
15022;SDS011;19850;49.576;10.880;2023-04-03T18:49:34;1.80;;;1.30;;
15022;SDS011;19850;49.576;10.880;2023-04-03T18:53:39;3.63;;;1.40;;
15022;SDS011;19850;49.576;10.880;2023-04-03T18:57:42;2.70;;;2.00;;
15022;SDS011;19850;49.576;10.880;2023-04-03T19:01:45;2.50;;;1.70;;
15022;SDS011;19850;49.576;10.880;2023-04-03T19:05:50;2.40;;;1.37;;
15022;SDS011;19850;49.576;10.880;2023-04-03T19:09:54;2.30;;;1.80;;
15022;SDS011;19850;49.576;10.880;2023-04-03T19:13:58;1.67;;;1.30;;
15022;SDS011;19850;49.576;10.880;2023-04-03T19:18:15;3.03;;;1.43;;
15022;SDS011;19850;49.576;10.880;2023-04-03T19:22:19;2.40;;;1.87;;
15022;SDS011;19850;49.576;10.880;2023-04-03T19:26:22;2.47;;;1.30;;
15022;SDS011;19850;49.576;10.880;2023-04-03T19:30:24;2.80;;;1.50;;
15022;SDS011;19850;49.576;10.880;2023-04-03T19:34:27;2.50;;;1.47;;
15022;SDS011;19850;49.576;10.880;2023-04-03T19:42:36;1.90;;;1.43;;
15022;SDS011;19850;49.576;10.880;2023-04-03T19:46:43;2.43;;;1.50;;
15022;SDS011;19850;49.576;10.880;2023-04-03T19:50:51;1.90;;;1.20;;
15022;SDS011;19850;49.576;10.880;2023-04-03T19:54:56;1.80;;;1.27;;
15022;SDS011;19850;49.576;10.880;2023-04-03T19:58:59;2.67;;;1.30;;
15022;SDS011;19850;49.576;10.880;2023-04-03T20:03:03;2.23;;;1.60;;
15022;SDS011;19850;49.576;10.880;2023-04-03T20:07:06;2.67;;;1.50;;
15022;SDS011;19850;49.576;10.880;2023-04-03T20:11:12;2.80;;;1.50;;
15022;SDS011;19850;49.576;10.880;2023-04-03T20:15:15;2.87;;;1.20;;
15022;SDS011;19850;49.576;10.880;2023-04-03T20:19:19;2.07;;;1.30;;
15022;SDS011;19850;49.576;10.880;2023-04-03T20:23:27;2.67;;;1.30;;
15022;SDS011;19850;49.576;10.880;2023-04-03T20:27:33;2.93;;;1.33;;
15022;SDS011;19850;49.576;10.880;2023-04-03T20:31:36;2.67;;;1.60;;
15022;SDS011;19850;49.576;10.880;2023-04-03T20:35:41;1.47;;;1.37;;
15022;SDS011;19850;49.576;10.880;2023-04-03T20:39:44;1.70;;;1.03;;
15022;SDS011;19850;49.576;10.880;2023-04-03T20:43:49;2.67;;;1.13;;
15022;SDS011;19850;49.576;10.880;2023-04-03T20:47:52;2.53;;;1.33;;
15022;SDS011;19850;49.576;10.880;2023-04-03T20:51:55;1.60;;;1.30;;
15022;SDS011;19850;49.576;10.880;2023-04-03T20:55:59;2.23;;;1.50;;
15022;SDS011;19850;49.576;10.880;2023-04-03T21:00:07;3.50;;;1.30;;
15022;SDS011;19850;49.576;10.880;2023-04-03T21:04:12;3.27;;;1.37;;
15022;SDS011;19850;49.576;10.880;2023-04-03T21:22:01;3.27;;;1.40;;
15022;SDS011;19850;49.576;10.880;2023-04-03T21:26:04;2.87;;;1.40;;
15022;SDS011;19850;49.576;10.880;2023-04-03T21:30:07;1.93;;;1.30;;
15022;SDS011;19850;49.576;10.880;2023-04-03T21:34:12;3.03;;;1.50;;
15022;SDS011;19850;49.576;10.880;2023-04-03T21:38:15;4.27;;;1.30;;
15022;SDS011;19850;49.576;10.880;2023-04-03T21:42:18;5.30;;;1.50;;
15022;SDS011;19850;49.576;10.880;2023-04-03T21:46:21;1.93;;;1.43;;
15022;SDS011;19850;49.576;10.880;2023-04-03T21:50:26;3.70;;;1.60;;
15022;SDS011;19850;49.576;10.880;2023-04-03T21:54:29;4.13;;;1.40;;
15022;SDS011;19850;49.576;10.880;2023-04-03T21:58:32;2.07;;;1.37;;
15022;SDS011;19850;49.576;10.880;2023-04-03T22:02:37;1.47;;;1.37;;
15022;SDS011;19850;49.576;10.880;2023-04-03T22:06:43;3.03;;;1.63;;
15022;SDS011;19850;49.576;10.880;2023-04-03T22:10:46;1.40;;;1.23;;
15022;SDS011;19850;49.576;10.880;2023-04-03T22:14:48;3.27;;;1.33;;
15022;SDS011;19850;49.576;10.880;2023-04-03T22:18:51;2.30;;;1.40;;
15022;SDS011;19850;49.576;10.880;2023-04-03T22:22:56;2.73;;;1.30;;
15022;SDS011;19850;49.576;10.880;2023-04-03T22:26:58;1.87;;;1.40;;
15022;SDS011;19850;49.576;10.880;2023-04-03T22:31:02;2.23;;;1.40;;
15022;SDS011;19850;49.576;10.880;2023-04-03T22:35:07;3.10;;;1.47;;
15022;SDS011;19850;49.576;10.880;2023-04-03T22:39:12;2.90;;;1.43;;
15022;SDS011;19850;49.576;10.880;2023-04-03T22:43:16;3.80;;;1.50;;
15022;SDS011;19850;49.576;10.880;2023-04-03T22:47:19;3.67;;;1.40;;
15022;SDS011;19850;49.576;10.880;2023-04-03T22:51:22;2.37;;;1.50;;
15022;SDS011;19850;49.576;10.880;2023-04-03T22:55:26;3.03;;;1.47;;
15022;SDS011;19850;49.576;10.880;2023-04-03T22:59:29;3.27;;;1.47;;
15022;SDS011;19850;49.576;10.880;2023-04-03T23:03:32;2.87;;;1.30;;
15022;SDS011;19850;49.576;10.880;2023-04-03T23:07:36;3.03;;;1.33;;
15022;SDS011;19850;49.576;10.880;2023-04-03T23:11:40;2.73;;;1.30;;
15022;SDS011;19850;49.576;10.880;2023-04-03T23:15:42;2.37;;;1.40;;
15022;SDS011;19850;49.576;10.880;2023-04-03T23:19:45;1.57;;;1.10;;
15022;SDS011;19850;49.576;10.880;2023-04-03T23:23:48;1.83;;;1.10;;
15022;SDS011;19850;49.576;10.880;2023-04-03T23:27:52;1.73;;;1.20;;
15022;SDS011;19850;49.576;10.880;2023-04-03T23:31:58;2.90;;;1.27;;
15022;SDS011;19850;49.576;10.880;2023-04-03T23:36:04;2.03;;;1.23;;
15022;SDS011;19850;49.576;10.880;2023-04-03T23:40:08;2.33;;;1.20;;
15022;SDS011;19850;49.576;10.880;2023-04-03T23:44:13;1.50;;;1.30;;
15022;SDS011;19850;49.576;10.880;2023-04-03T23:48:16;1.30;;;1.13;;
15022;SDS011;19850;49.576;10.880;2023-04-03T23:52:19;3.43;;;1.43;;
15022;SDS011;19850;49.576;10.880;2023-04-03T23:56:24;2.23;;;1.37;;
